createdAt,value
2022-12-17T00:01:04.448Z,16.50
2022-12-17T00:03:49.970Z,17.10
2022-12-17T00:06:36.247Z,14.70
2022-12-17T00:09:21.632Z,14.20
2022-12-17T00:12:07.100Z,13.80
2022-12-17T00:14:52.568Z,14.40
2022-12-17T00:17:39.306Z,14.30
2022-12-17T00:20:24.850Z,14.50
2022-12-17T00:23:20.527Z,12.50
2022-12-17T00:26:20.802Z,11.60
2022-12-17T00:29:10.703Z,12.50
2022-12-17T00:31:56.364Z,12.30
2022-12-17T00:34:42.009Z,12.10
2022-12-17T00:37:28.842Z,12.00
2022-12-17T00:40:14.397Z,11.20
2022-12-17T00:43:00.354Z,10.90
2022-12-17T00:45:46.232Z,10.90
2022-12-17T00:48:31.722Z,10.50
2022-12-17T00:51:17.178Z,10.50
2022-12-17T00:54:04.068Z,10.80
2022-12-17T00:56:52.061Z,9.10
2022-12-17T00:59:37.571Z,8.90
2022-12-17T01:02:23.190Z,10.00
2022-12-17T01:05:08.924Z,9.40
2022-12-17T01:07:54.870Z,8.90
2022-12-17T01:10:42.079Z,9.90
2022-12-17T01:13:27.622Z,9.10
2022-12-17T01:16:13.079Z,9.80
2022-12-17T01:18:58.584Z,10.80
2022-12-17T01:21:51.560Z,10.70
2022-12-17T01:24:37.427Z,11.20
2022-12-17T01:27:24.170Z,11.00
2022-12-17T01:30:09.830Z,11.70
2022-12-17T01:32:55.219Z,12.10
2022-12-17T01:35:40.790Z,12.90
2022-12-17T01:38:32.912Z,13.00
2022-12-17T01:41:18.257Z,12.30
2022-12-17T01:44:03.863Z,11.50
2022-12-17T01:46:52.407Z,9.20
2022-12-17T01:49:39.697Z,8.80
2022-12-17T01:52:25.184Z,8.00
2022-12-17T01:55:10.842Z,8.70
2022-12-17T01:57:58.064Z,8.60
2022-12-17T02:00:43.590Z,8.50
2022-12-17T02:03:36.557Z,8.90
2022-12-17T02:06:37.599Z,9.50
2022-12-17T02:09:27.096Z,9.00
2022-12-17T02:12:21.863Z,9.30
2022-12-17T02:15:11.779Z,8.40
2022-12-17T02:18:00.347Z,8.70
2022-12-17T02:20:49.846Z,9.50
2022-12-17T02:23:47.518Z,8.80
2022-12-17T02:26:49.712Z,8.90
2022-12-17T02:29:38.814Z,7.70
2022-12-17T02:32:24.358Z,7.70
2022-12-17T02:35:09.750Z,7.60
2022-12-17T02:37:55.297Z,7.50
2022-12-17T02:40:41.302Z,7.20
2022-12-17T02:43:27.284Z,6.60
2022-12-17T02:46:13.635Z,6.50
2022-12-17T02:48:59.532Z,5.60
2022-12-17T02:51:46.584Z,5.70
2022-12-17T02:54:32.120Z,5.70
2022-12-17T02:57:17.553Z,5.10
2022-12-17T03:00:03.461Z,5.20
2022-12-17T03:02:49.737Z,5.10
2022-12-17T03:05:45.057Z,5.20
2022-12-17T03:08:31.761Z,4.70
2022-12-17T03:11:17.347Z,5.10
2022-12-17T03:14:02.873Z,5.50
2022-12-17T03:16:48.588Z,5.00
2022-12-17T03:19:34.267Z,4.80
2022-12-17T03:22:19.587Z,4.40
2022-12-17T03:25:04.934Z,4.10
2022-12-17T03:27:50.432Z,4.00
2022-12-17T03:30:39.173Z,4.10
2022-12-17T03:33:27.920Z,3.30
2022-12-17T03:36:13.496Z,3.60
2022-12-17T03:38:58.816Z,3.80
2022-12-17T03:41:44.275Z,4.20
2022-12-17T03:44:29.752Z,4.10
2022-12-17T03:47:15.339Z,3.90
2022-12-17T03:50:00.821Z,3.30
2022-12-17T03:52:46.366Z,4.10
2022-12-17T03:55:31.736Z,4.30
2022-12-17T03:58:17.253Z,4.00
2022-12-17T04:01:02.900Z,8.90
2022-12-17T04:03:48.589Z,6.90
2022-12-17T04:06:34.093Z,3.50
2022-12-17T04:09:19.498Z,3.00
2022-12-17T04:12:04.993Z,2.90
2022-12-17T04:14:50.444Z,3.10
2022-12-17T04:17:36.212Z,3.40
2022-12-17T04:20:22.155Z,3.30
2022-12-17T04:23:07.729Z,2.50
2022-12-17T04:25:53.168Z,2.60
2022-12-17T04:28:38.607Z,2.90
2022-12-17T04:31:24.347Z,3.00
2022-12-17T04:34:09.799Z,3.60
2022-12-17T04:36:55.362Z,3.50
2022-12-17T04:39:40.733Z,4.10
2022-12-17T04:42:26.132Z,3.70
2022-12-17T04:45:11.679Z,6.90
2022-12-17T04:47:57.023Z,5.40
2022-12-17T04:50:56.254Z,3.90
2022-12-17T04:53:41.700Z,3.80
2022-12-17T04:56:27.125Z,4.00
2022-12-17T04:59:12.556Z,4.30
2022-12-17T05:01:58.304Z,4.00
2022-12-17T05:04:43.991Z,4.10
2022-12-17T05:07:29.417Z,4.20
2022-12-17T05:10:14.903Z,4.30
2022-12-17T05:13:00.310Z,4.60
2022-12-17T05:15:51.290Z,6.00
2022-12-17T05:18:38.419Z,4.20
2022-12-17T05:21:23.884Z,3.70
2022-12-17T05:24:09.238Z,3.20
2022-12-17T05:26:54.877Z,3.10
2022-12-17T05:29:42.728Z,3.50
2022-12-17T05:32:28.259Z,3.80
2022-12-17T05:35:13.677Z,3.60
2022-12-17T05:37:59.164Z,3.40
2022-12-17T05:40:44.641Z,3.00
2022-12-17T05:43:31.300Z,2.90
2022-12-17T05:46:17.736Z,2.60
2022-12-17T05:49:03.248Z,2.60
2022-12-17T05:51:48.738Z,3.00
2022-12-17T05:54:34.254Z,3.20
2022-12-17T05:57:19.852Z,3.50
2022-12-17T06:00:05.339Z,3.10
2022-12-17T06:02:57.715Z,3.20
2022-12-17T06:05:43.398Z,3.30
2022-12-17T06:08:28.788Z,3.10
2022-12-17T06:11:17.658Z,3.90
2022-12-17T06:14:03.122Z,3.40
2022-12-17T06:16:48.525Z,3.80
2022-12-17T06:19:33.848Z,3.60
2022-12-17T06:22:19.434Z,3.40
2022-12-17T06:25:04.817Z,4.00
2022-12-17T06:27:50.335Z,4.20
2022-12-17T06:30:35.824Z,4.10
2022-12-17T06:33:28.998Z,3.80
2022-12-17T06:36:21.605Z,3.80
2022-12-17T06:39:07.895Z,3.70
2022-12-17T06:41:54.771Z,3.70
2022-12-17T06:44:47.766Z,4.00
2022-12-17T06:47:33.302Z,4.30
2022-12-17T06:50:18.823Z,4.10
2022-12-17T06:53:04.391Z,4.20
2022-12-17T06:55:49.787Z,4.90
2022-12-17T06:58:35.491Z,5.00
2022-12-17T07:01:21.320Z,5.30
2022-12-17T07:04:06.941Z,4.70
2022-12-17T07:06:55.529Z,4.60
2022-12-17T07:09:42.677Z,5.30
2022-12-17T07:12:28.042Z,5.90
2022-12-17T07:15:13.804Z,6.40
2022-12-17T07:19:56.005Z,5.70
2022-12-17T07:22:55.411Z,5.50
2022-12-17T07:25:45.830Z,5.70
2022-12-17T07:28:32.819Z,6.20
2022-12-17T07:31:20.092Z,6.20
2022-12-17T07:34:08.998Z,7.20
2022-12-17T07:36:57.255Z,5.90
2022-12-17T07:39:47.384Z,5.50
2022-12-17T07:42:33.115Z,4.40
2022-12-17T07:45:18.903Z,4.40
2022-12-17T07:48:13.232Z,6.30
2022-12-17T07:50:58.844Z,5.20
2022-12-17T07:53:44.580Z,4.50
2022-12-17T07:56:30.484Z,4.40
2022-12-17T07:59:16.276Z,4.60
2022-12-17T08:02:04.992Z,6.10
2022-12-17T08:04:51.122Z,5.90
2022-12-17T08:07:36.888Z,6.40
2022-12-17T08:10:26.364Z,8.10
2022-12-17T08:13:18.884Z,8.30
2022-12-17T08:16:04.587Z,9.40
2022-12-17T08:18:50.457Z,10.10
2022-12-17T08:21:36.086Z,9.20
2022-12-17T08:24:21.807Z,7.00
2022-12-17T08:27:07.507Z,5.00
2022-12-17T08:29:53.398Z,4.60
2022-12-17T08:32:39.183Z,4.20
2022-12-17T08:35:24.986Z,4.70
2022-12-17T08:38:12.202Z,5.00
2022-12-17T08:48:56.059Z,3.60
2022-12-17T08:51:45.172Z,3.50
2022-12-17T08:54:31.013Z,3.90
2022-12-17T08:57:30.624Z,4.10
2022-12-17T09:00:19.379Z,5.00
2022-12-17T09:03:05.055Z,4.20
2022-12-17T09:05:50.578Z,3.60
2022-12-17T09:08:36.112Z,4.20
2022-12-17T09:11:21.447Z,6.00
2022-12-17T09:14:06.987Z,5.10
2022-12-17T09:16:52.503Z,4.60
2022-12-17T09:19:38.037Z,4.30
2022-12-17T09:22:23.653Z,3.80
2022-12-17T09:25:09.308Z,3.50
2022-12-17T09:27:54.872Z,3.80
2022-12-17T09:30:40.341Z,4.40
2022-12-17T09:33:25.784Z,5.70
2022-12-17T09:36:11.293Z,5.20
2022-12-17T09:38:56.726Z,4.10
2022-12-17T09:41:51.383Z,2.70
2022-12-17T09:44:45.418Z,2.70
2022-12-17T09:47:52.452Z,2.50
2022-12-17T09:50:37.893Z,2.90
2022-12-17T09:53:29.443Z,2.60
2022-12-17T09:56:14.948Z,2.40
2022-12-17T09:59:00.536Z,2.60
2022-12-17T10:01:49.696Z,3.10
2022-12-17T10:04:56.137Z,3.50
2022-12-17T10:07:43.526Z,2.70
2022-12-17T10:10:34.206Z,2.70
2022-12-17T10:13:19.644Z,41.40
2022-12-17T10:16:05.903Z,9.20
2022-12-17T10:19:00.836Z,3.00
2022-12-17T10:21:50.768Z,2.90
2022-12-17T10:24:36.359Z,4.00
2022-12-17T10:27:28.969Z,4.50
2022-12-17T10:30:14.524Z,4.20
2022-12-17T10:33:00.116Z,4.10
2022-12-17T10:35:53.710Z,4.90
2022-12-17T10:41:37.898Z,15.40
2022-12-17T10:44:38.313Z,6.30
2022-12-17T10:47:26.387Z,5.60
2022-12-17T10:50:16.567Z,4.60
2022-12-17T10:53:14.127Z,3.40
2022-12-17T10:56:13.121Z,2.60
2022-12-17T10:59:05.919Z,3.00
2022-12-17T11:01:51.513Z,3.60
2022-12-17T11:04:57.432Z,10.10
2022-12-17T11:07:43.806Z,6.40
2022-12-17T11:10:44.253Z,5.90
2022-12-17T11:13:35.110Z,5.50
2022-12-17T11:16:20.803Z,3.90
2022-12-17T11:19:17.549Z,2.90
2022-12-17T11:22:05.906Z,3.70
2022-12-17T11:24:53.911Z,2.90
2022-12-17T11:27:41.088Z,2.70
2022-12-17T11:30:33.671Z,3.20
2022-12-17T11:33:25.254Z,3.00
2022-12-17T11:36:13.742Z,1.70
2022-12-17T11:39:25.677Z,3.00
2022-12-17T11:42:17.400Z,3.60
2022-12-17T11:45:06.508Z,2.40
2022-12-17T11:48:15.358Z,2.30
2022-12-17T11:51:33.479Z,4.40
2022-12-17T11:54:19.985Z,2.60
2022-12-17T11:57:10.473Z,2.20
2022-12-17T12:00:04.560Z,3.60
2022-12-17T12:03:09.305Z,2.50
2022-12-17T12:06:17.898Z,2.10
2022-12-17T12:09:52.561Z,5.60
2022-12-17T12:12:59.025Z,2.90
2022-12-17T12:15:55.763Z,2.80
2022-12-17T12:18:57.287Z,2.60
2022-12-17T12:21:59.070Z,2.30
2022-12-17T12:25:02.595Z,2.10
2022-12-17T12:28:24.124Z,1.60
2022-12-17T12:31:25.974Z,2.60
2022-12-17T12:34:19.511Z,2.90
2022-12-17T12:37:05.050Z,2.10
2022-12-17T12:39:57.026Z,1.80
2022-12-17T12:42:56.272Z,2.00
2022-12-17T12:46:03.685Z,1.80
2022-12-17T12:48:55.514Z,1.70
2022-12-17T12:51:48.204Z,2.20
2022-12-17T12:54:47.563Z,1.80
2022-12-17T12:57:52.491Z,2.30
2022-12-17T13:00:44.267Z,2.30
2022-12-17T13:03:58.293Z,2.30
2022-12-17T13:06:40.110Z,2.70
2022-12-17T13:09:19.051Z,2.80
2022-12-17T13:11:48.255Z,2.80
2022-12-17T13:14:20.850Z,3.10
2022-12-17T13:16:47.765Z,3.50
2022-12-17T13:19:40.270Z,4.30
2022-12-17T13:22:10.107Z,4.20
2022-12-17T13:24:37.029Z,4.30
2022-12-17T13:27:04.294Z,5.50
2022-12-17T13:29:36.167Z,4.70
2022-12-17T13:32:19.915Z,4.60
2022-12-17T13:34:58.379Z,7.50
2022-12-17T13:37:29.302Z,5.90
2022-12-17T13:40:01.782Z,6.40
2022-12-17T13:42:33.070Z,7.10
2022-12-17T13:44:59.990Z,7.80
2022-12-17T13:47:35.244Z,8.10
2022-12-17T13:50:32.809Z,7.50
2022-12-17T13:52:56.923Z,7.00
2022-12-17T13:55:25.666Z,7.20
2022-12-17T13:57:54.218Z,10.10
2022-12-17T14:00:23.399Z,14.10
2022-12-17T14:02:53.124Z,10.10
2022-12-17T14:05:40.324Z,10.70
2022-12-17T14:08:07.316Z,8.30
2022-12-17T14:10:34.144Z,7.40
2022-12-17T14:13:10.661Z,7.70
2022-12-17T14:15:37.611Z,9.00
2022-12-17T14:18:04.532Z,7.60
2022-12-17T14:20:33.075Z,8.30
2022-12-17T14:23:06.189Z,8.40
2022-12-17T14:25:38.165Z,8.10
2022-12-17T14:28:07.205Z,15.10
2022-12-17T14:31:17.126Z,13.80
2022-12-17T14:33:31.471Z,12.10
2022-12-17T14:36:09.033Z,12.40
2022-12-17T14:38:39.482Z,10.60
2022-12-17T14:41:31.101Z,10.10
2022-12-17T14:43:59.006Z,9.60
2022-12-17T14:46:34.103Z,7.70
2022-12-17T14:49:12.312Z,8.20
2022-12-17T14:51:40.617Z,8.50
2022-12-17T14:54:20.517Z,9.80
2022-12-17T14:56:54.694Z,11.40
2022-12-17T14:59:35.375Z,10.90
2022-12-17T15:02:09.333Z,9.50
2022-12-17T15:04:37.147Z,10.00
2022-12-17T15:07:04.420Z,10.20
2022-12-17T15:09:35.308Z,10.80
2022-12-17T15:12:04.782Z,12.20
2022-12-17T15:14:32.133Z,10.60
2022-12-17T15:17:07.026Z,10.40
2022-12-17T15:19:33.860Z,11.20
2022-12-17T15:22:00.785Z,11.00
2022-12-17T15:24:27.604Z,11.10
2022-12-17T15:26:58.351Z,10.60
2022-12-17T15:29:25.212Z,13.10
2022-12-17T15:31:54.436Z,12.20
2022-12-17T15:34:23.528Z,12.70
2022-12-17T15:36:50.351Z,12.30
2022-12-17T15:39:17.453Z,13.90
2022-12-17T15:42:03.319Z,11.60
2022-12-17T15:44:30.116Z,13.30
2022-12-17T15:47:00.114Z,14.90
2022-12-17T15:49:27.182Z,13.40
2022-12-17T15:51:54.008Z,13.20
2022-12-17T15:54:20.911Z,14.30
2022-12-17T15:56:52.675Z,15.10
2022-12-17T15:59:19.744Z,15.00
2022-12-17T16:01:52.027Z,15.00
2022-12-17T16:04:24.646Z,15.70
2022-12-17T16:06:52.031Z,16.20
2022-12-17T16:09:19.547Z,13.90
2022-12-17T16:11:47.326Z,13.70
2022-12-17T16:14:14.184Z,15.40
2022-12-17T16:16:43.350Z,16.20
2022-12-17T16:19:10.717Z,15.10
2022-12-17T16:21:42.041Z,17.10
2022-12-17T16:24:12.228Z,17.30
2022-12-17T16:26:40.143Z,17.60
2022-12-17T16:29:07.048Z,15.70
2022-12-17T16:31:34.363Z,17.00
2022-12-17T16:34:01.236Z,14.40
2022-12-17T16:36:28.039Z,15.20
2022-12-17T16:38:55.136Z,17.50
2022-12-17T16:41:22.040Z,18.20
2022-12-17T16:43:51.434Z,15.70
2022-12-17T16:46:34.389Z,16.10
2022-12-17T16:49:09.422Z,15.30
2022-12-17T16:51:38.911Z,17.20
2022-12-17T16:54:14.465Z,16.70
2022-12-17T16:56:41.428Z,16.70
2022-12-17T16:59:11.163Z,15.70
2022-12-17T17:01:38.919Z,17.90
2022-12-17T17:04:06.945Z,17.30
2022-12-17T17:06:41.321Z,18.60
2022-12-17T17:09:08.263Z,19.70
2022-12-17T17:11:35.181Z,18.10
2022-12-17T17:14:04.911Z,17.20
2022-12-17T17:16:31.844Z,16.70
2022-12-17T17:18:58.745Z,15.10
2022-12-17T17:21:30.339Z,15.90
2022-12-17T17:24:20.851Z,14.70
2022-12-17T17:26:49.075Z,16.20
2022-12-17T17:29:15.901Z,16.40
2022-12-17T17:34:30.119Z,15.80
2022-12-17T17:37:04.301Z,15.20
2022-12-17T17:39:33.455Z,16.40
2022-12-17T17:42:00.915Z,15.80
2022-12-17T17:44:28.002Z,17.60
2022-12-17T17:46:54.896Z,17.00
2022-12-17T17:49:22.388Z,16.30
2022-12-17T17:52:08.947Z,16.50
2022-12-17T17:54:36.492Z,16.30
2022-12-17T17:57:05.617Z,15.30
2022-12-17T17:59:34.019Z,16.80
2022-12-17T18:02:01.710Z,16.50
2022-12-17T18:04:28.694Z,16.60
2022-12-17T18:07:24.075Z,17.00
2022-12-17T18:09:42.544Z,16.80
2022-12-17T18:12:27.971Z,16.90
2022-12-17T18:17:41.946Z,17.80
2022-12-17T18:20:09.902Z,16.00
2022-12-17T18:22:37.000Z,17.10
2022-12-17T18:25:04.370Z,18.50
2022-12-17T18:27:34.257Z,17.40
2022-12-17T18:30:01.292Z,16.90
2022-12-17T18:32:30.214Z,17.10
2022-12-17T18:34:57.170Z,17.60
2022-12-17T18:37:26.808Z,17.20
2022-12-17T18:39:53.640Z,16.10
2022-12-17T18:42:40.417Z,15.70
2022-12-17T18:45:07.809Z,16.50
2022-12-17T18:47:39.678Z,16.10
2022-12-17T18:50:06.938Z,14.50
2022-12-17T18:52:33.833Z,14.50
2022-12-17T18:55:04.372Z,15.20
2022-12-17T18:57:43.240Z,15.20
2022-12-17T19:00:17.205Z,15.40
2022-12-17T19:02:44.624Z,16.10
2022-12-17T19:05:11.595Z,15.10
2022-12-17T19:07:38.585Z,15.10
2022-12-17T19:10:10.179Z,15.80
2022-12-17T19:12:40.542Z,14.30
2022-12-17T19:15:11.288Z,15.90
2022-12-17T19:17:41.702Z,15.30
2022-12-17T19:20:09.348Z,14.40
2022-12-17T19:22:36.225Z,14.70
2022-12-17T19:25:03.255Z,14.60
2022-12-17T19:27:30.150Z,15.50
2022-12-17T19:29:57.612Z,14.10
2022-12-17T19:32:25.052Z,15.00
2022-12-17T19:37:23.172Z,15.50
2022-12-17T19:39:50.176Z,15.10
2022-12-17T19:42:27.606Z,15.70
2022-12-17T19:44:57.443Z,15.90
2022-12-17T19:47:24.630Z,13.20
2022-12-17T19:49:51.573Z,12.20
2022-12-17T19:52:21.226Z,12.20
2022-12-17T19:54:48.789Z,12.50
2022-12-17T19:57:15.880Z,13.40
2022-12-17T19:59:45.166Z,13.10
2022-12-17T20:02:12.303Z,13.10
2022-12-17T20:04:42.292Z,12.40
2022-12-17T20:07:09.080Z,12.80
2022-12-17T20:09:45.617Z,13.00
2022-12-17T20:12:12.850Z,12.90
2022-12-17T20:14:39.744Z,11.40
2022-12-17T20:17:06.717Z,10.50
2022-12-17T20:19:35.262Z,11.50
2022-12-17T20:22:05.977Z,11.40
2022-12-17T20:24:38.082Z,10.60
2022-12-17T20:27:09.472Z,11.30
2022-12-17T20:29:36.369Z,10.60
2022-12-17T20:32:03.630Z,10.90
2022-12-17T20:34:30.725Z,11.00
2022-12-17T20:36:57.544Z,10.70
2022-12-17T20:39:28.253Z,10.80
2022-12-17T20:41:56.448Z,10.60
2022-12-17T20:44:23.464Z,11.90
2022-12-17T20:46:50.396Z,12.00
2022-12-17T20:49:18.378Z,11.80
2022-12-17T20:51:46.036Z,12.20
2022-12-17T20:54:12.858Z,11.10
2022-12-17T20:56:40.100Z,11.00
2022-12-17T20:59:08.709Z,11.60
2022-12-17T21:01:36.137Z,11.80
2022-12-17T21:04:03.482Z,12.10
2022-12-17T21:06:34.802Z,12.20
2022-12-17T21:09:03.512Z,10.70
2022-12-17T21:11:32.987Z,11.40
2022-12-17T21:14:10.308Z,11.50
2022-12-17T21:16:38.416Z,11.60
2022-12-17T21:19:26.606Z,11.60
2022-12-17T21:22:32.285Z,11.70
2022-12-17T21:25:01.562Z,11.40
2022-12-17T21:27:29.851Z,12.10
2022-12-17T21:29:57.250Z,12.10
2022-12-17T21:32:28.819Z,12.00
2022-12-17T21:35:00.411Z,12.00
2022-12-17T21:37:27.530Z,11.80
2022-12-17T21:39:59.544Z,11.40
2022-12-17T21:42:45.529Z,12.40
2022-12-17T21:45:12.670Z,13.00
2022-12-17T21:47:39.905Z,12.00
2022-12-17T21:50:07.241Z,12.80
2022-12-17T21:52:34.103Z,13.50
2022-12-17T21:55:00.966Z,13.40
2022-12-17T21:57:27.815Z,12.10
2022-12-17T21:59:54.615Z,12.50
2022-12-17T22:02:25.050Z,12.20
2022-12-17T22:04:52.148Z,12.60
2022-12-17T22:07:22.436Z,13.50
2022-12-17T22:10:17.764Z,13.10
2022-12-17T22:13:03.096Z,11.90
2022-12-17T22:15:30.994Z,13.60
2022-12-17T22:18:05.264Z,13.00
2022-12-17T22:20:37.767Z,12.70
2022-12-17T22:23:06.826Z,14.20
2022-12-17T22:25:43.652Z,13.70
2022-12-17T22:28:10.724Z,13.00
2022-12-17T22:30:59.903Z,13.40
2022-12-17T22:34:27.179Z,13.30
2022-12-17T22:38:54.452Z,13.40
2022-12-17T22:42:42.325Z,13.40
2022-12-17T22:44:41.941Z,14.40
2022-12-17T22:45:10.310Z,13.30
2022-12-17T22:47:41.689Z,19.70
2022-12-17T22:50:08.924Z,18.90
2022-12-17T22:52:38.985Z,15.30
2022-12-17T22:55:09.490Z,15.20
2022-12-17T22:57:38.550Z,14.70
2022-12-17T23:00:20.303Z,13.50
2022-12-17T23:02:47.283Z,14.70
2022-12-17T23:05:14.771Z,14.90
2022-12-17T23:07:41.615Z,14.50
2022-12-17T23:10:08.893Z,14.10
2022-12-17T23:12:50.871Z,15.60
2022-12-17T23:15:42.978Z,14.50
2022-12-17T23:18:12.567Z,15.90
2022-12-17T23:20:39.400Z,15.40
2022-12-17T23:23:06.345Z,15.30
2022-12-17T23:25:33.602Z,15.70
2022-12-17T23:28:00.447Z,14.70
2022-12-17T23:30:27.192Z,17.00
2022-12-17T23:32:53.976Z,15.40
2022-12-17T23:35:20.966Z,16.60
2022-12-17T23:37:47.893Z,15.80
2022-12-17T23:40:14.861Z,16.80
2022-12-17T23:42:42.595Z,16.00
2022-12-17T23:45:11.506Z,16.50
2022-12-17T23:47:41.325Z,17.20
2022-12-17T23:50:11.264Z,16.20
2022-12-17T23:52:38.402Z,16.30
2022-12-17T23:55:05.543Z,16.00
2022-12-17T23:57:32.705Z,17.70
